createdAt,value
2022-09-10T00:02:34.176Z,16.80
2022-09-10T00:06:16.497Z,16.70
2022-09-10T00:10:19.982Z,16.70
2022-09-10T00:14:03.576Z,16.60
2022-09-10T00:17:45.299Z,16.60
2022-09-10T00:22:23.390Z,16.50
2022-09-10T00:26:16.750Z,16.50
2022-09-10T00:30:01.968Z,16.40
2022-09-10T00:33:43.976Z,16.40
2022-09-10T00:37:25.679Z,16.40
2022-09-10T00:41:27.466Z,16.30
2022-09-10T00:45:26.327Z,16.30
2022-09-10T00:49:32.036Z,16.30
2022-09-10T00:53:16.050Z,16.30
2022-09-10T00:57:00.051Z,16.30
2022-09-10T01:00:42.182Z,16.20
2022-09-10T01:04:23.995Z,16.20
2022-09-10T01:08:12.359Z,16.20
2022-09-10T01:12:16.004Z,16.10
2022-09-10T01:16:19.465Z,16.20
2022-09-10T01:20:24.908Z,16.10
2022-09-10T01:24:28.959Z,16.10
2022-09-10T01:28:15.546Z,16.20
2022-09-10T01:32:01.912Z,16.20
2022-09-10T01:35:56.326Z,16.10
2022-09-10T01:39:39.287Z,16.10
2022-09-10T01:43:22.603Z,16.10
2022-09-10T01:47:13.023Z,16.10
2022-09-10T01:51:08.879Z,16.00
2022-09-10T01:54:56.453Z,16.10
2022-09-10T01:58:40.623Z,16.00
2022-09-10T02:02:31.011Z,16.00
2022-09-10T02:06:15.010Z,16.00
2022-09-10T02:10:53.147Z,16.00
2022-09-10T02:14:34.835Z,15.90
2022-09-10T02:18:16.577Z,15.90
2022-09-10T02:22:17.416Z,15.90
2022-09-10T02:25:59.153Z,15.80
2022-09-10T02:29:43.062Z,15.80
2022-09-10T02:33:24.974Z,15.80
2022-09-10T02:37:06.694Z,15.80
2022-09-10T02:41:09.867Z,15.70
2022-09-10T02:44:51.567Z,15.60
2022-09-10T02:48:33.358Z,15.60
2022-09-10T02:52:35.063Z,15.60
2022-09-10T02:56:17.823Z,15.60
2022-09-10T03:00:01.651Z,15.60
2022-09-10T03:03:43.440Z,15.70
2022-09-10T03:07:25.162Z,15.70
2022-09-10T03:11:13.731Z,15.70
2022-09-10T03:14:56.261Z,15.70
2022-09-10T03:18:38.039Z,15.80
2022-09-10T03:22:22.074Z,15.80
2022-09-10T03:26:04.456Z,15.80
2022-09-10T03:29:47.478Z,15.80
2022-09-10T03:33:29.184Z,15.90
2022-09-10T03:37:10.875Z,15.90
2022-09-10T03:41:49.042Z,16.00
2022-09-10T03:45:30.930Z,16.00
2022-09-10T03:49:33.635Z,16.10
2022-09-10T03:53:15.557Z,16.00
2022-09-10T03:56:57.253Z,16.10
2022-09-10T04:00:40.534Z,16.10
2022-09-10T04:04:22.347Z,16.20
2022-09-10T04:08:04.726Z,16.20
2022-09-10T04:12:05.362Z,16.20
2022-09-10T04:15:47.103Z,16.10
2022-09-10T04:20:25.179Z,16.10
2022-09-10T04:24:09.638Z,16.10
2022-09-10T04:27:51.406Z,16.00
2022-09-10T04:31:33.296Z,16.00
2022-09-10T04:35:15.486Z,16.00
2022-09-10T04:38:58.152Z,15.90
2022-09-10T04:42:39.865Z,15.90
2022-09-10T04:46:21.587Z,15.80
2022-09-10T04:50:09.138Z,15.80
2022-09-10T04:53:50.842Z,15.80
2022-09-10T04:57:32.608Z,15.80
2022-09-10T05:01:15.442Z,15.80
2022-09-10T05:04:57.162Z,15.70
2022-09-10T05:08:39.013Z,15.70
2022-09-10T05:12:21.259Z,15.70
2022-09-10T05:16:02.965Z,15.70
2022-09-10T05:19:47.776Z,15.60
2022-09-10T05:23:29.482Z,15.60
2022-09-10T05:27:11.182Z,15.60
2022-09-10T05:30:54.131Z,15.60
2022-09-10T05:34:36.011Z,15.60
2022-09-10T05:38:17.895Z,15.60
2022-09-10T05:42:38.691Z,15.60
2022-09-10T05:46:20.414Z,15.60
2022-09-10T05:50:23.279Z,15.60
2022-09-10T05:54:05.149Z,15.60
2022-09-10T05:57:46.844Z,15.60
2022-09-10T06:01:32.079Z,15.50
2022-09-10T06:05:13.847Z,15.60
2022-09-10T06:08:55.979Z,15.50
2022-09-10T06:12:45.974Z,15.50
2022-09-10T06:16:27.858Z,15.50
2022-09-10T06:20:28.716Z,15.60
2022-09-10T06:24:10.547Z,15.60
2022-09-10T06:27:52.338Z,15.60
2022-09-10T06:31:52.997Z,15.70
2022-09-10T06:35:35.491Z,15.80
2022-09-10T06:40:14.026Z,16.00
2022-09-10T06:43:55.818Z,16.10
2022-09-10T06:51:42.533Z,16.40
2022-09-10T06:55:24.283Z,16.50
2022-09-10T06:59:25.138Z,16.60
2022-09-10T07:03:07.037Z,16.80
2022-09-10T07:06:48.824Z,16.80
2022-09-10T07:11:09.410Z,16.90
2022-09-10T07:14:52.234Z,17.10
2022-09-10T07:18:34.020Z,17.20
2022-09-10T07:22:55.272Z,17.30
2022-09-10T07:26:37.310Z,17.40
2022-09-10T07:31:15.565Z,17.60
2022-09-10T07:34:57.818Z,17.60
2022-09-10T07:38:40.336Z,17.70
2022-09-10T07:42:45.909Z,17.70
2022-09-10T07:46:30.578Z,17.80
2022-09-10T07:50:55.196Z,17.90
2022-09-10T07:54:36.968Z,17.90
2022-09-10T07:58:18.714Z,18.00
2022-09-10T08:02:39.902Z,18.10
2022-09-10T08:06:21.617Z,18.10
2022-09-10T08:10:43.210Z,18.20
2022-09-10T08:14:25.183Z,18.30
2022-09-10T08:18:07.138Z,18.40
2022-09-10T08:22:45.667Z,18.50
2022-09-10T08:26:27.485Z,18.60
2022-09-10T08:31:05.665Z,18.70
2022-09-10T08:34:48.323Z,18.90
2022-09-10T08:38:31.779Z,19.00
2022-09-10T08:42:22.542Z,19.20
2022-09-10T08:46:05.692Z,19.30
2022-09-10T08:49:53.091Z,19.40
2022-09-10T08:53:43.801Z,19.50
2022-09-10T08:57:38.710Z,19.70
2022-09-10T09:02:37.900Z,19.80
2022-09-10T09:06:54.763Z,19.90
2022-09-10T09:11:16.087Z,20.00
2022-09-10T09:15:18.430Z,19.90
2022-09-10T09:19:18.290Z,19.90
2022-09-10T09:23:19.544Z,20.00
2022-09-10T09:27:10.037Z,20.00
2022-09-10T09:30:55.989Z,20.20
2022-09-10T09:34:44.267Z,20.40
2022-09-10T09:38:37.385Z,20.60
2022-09-10T09:43:15.378Z,20.60
2022-09-10T09:46:57.121Z,20.60
2022-09-10T09:51:35.674Z,20.60
2022-09-10T09:55:33.575Z,20.60
2022-09-10T09:59:31.395Z,20.60
2022-09-10T10:03:27.149Z,20.50
2022-09-10T10:07:08.846Z,20.50
2022-09-10T10:11:13.880Z,20.50
2022-09-10T10:14:55.590Z,20.50
2022-09-10T10:18:37.302Z,20.70
2022-09-10T10:22:20.456Z,20.90
2022-09-10T10:26:16.019Z,21.00
2022-09-10T10:30:54.459Z,21.10
2022-09-10T10:34:53.158Z,21.20
2022-09-10T10:38:35.874Z,21.30
2022-09-10T10:43:14.288Z,21.40
2022-09-10T10:46:59.117Z,21.50
2022-09-10T10:51:10.030Z,21.60
2022-09-10T10:55:27.925Z,21.70
2022-09-10T10:59:16.947Z,21.80
2022-09-10T11:03:14.467Z,21.90
2022-09-10T11:07:03.538Z,22.00
2022-09-10T11:11:41.571Z,22.10
2022-09-10T11:15:30.320Z,22.20
2022-09-10T11:19:25.526Z,22.40
2022-09-10T11:23:45.207Z,22.50
2022-09-10T11:27:33.075Z,22.50
2022-09-10T11:32:11.367Z,22.60
2022-09-10T11:36:37.422Z,22.70
2022-09-10T11:40:31.037Z,22.90
2022-09-10T11:44:16.362Z,22.80
2022-09-10T11:48:35.605Z,22.80
2022-09-10T11:52:56.476Z,22.80
2022-09-10T11:57:00.284Z,22.80
2022-09-10T12:01:19.591Z,22.90
2022-09-10T12:05:27.691Z,23.00
2022-09-10T12:09:38.659Z,23.00
2022-09-10T12:13:20.536Z,23.10
2022-09-10T12:17:04.824Z,23.20
2022-09-10T12:21:25.250Z,23.30
2022-09-10T12:25:11.960Z,23.30
2022-09-10T12:28:53.707Z,23.40
2022-09-10T12:33:14.621Z,23.30
2022-09-10T12:36:59.140Z,23.30
2022-09-10T12:41:05.090Z,23.30
2022-09-10T12:44:47.114Z,23.40
2022-09-10T12:48:29.886Z,23.50
2022-09-10T12:52:41.143Z,23.80
2022-09-10T12:56:41.590Z,23.90
2022-09-10T13:00:24.408Z,24.10
2022-09-10T13:04:06.206Z,24.10
2022-09-10T13:07:49.318Z,24.20
2022-09-10T13:12:27.451Z,24.30
2022-09-10T13:16:26.534Z,24.30
2022-09-10T13:20:48.731Z,24.40
2022-09-10T13:24:34.210Z,24.50
2022-09-10T13:28:33.992Z,24.40
2022-09-10T13:33:12.218Z,24.30
2022-09-10T13:37:27.094Z,24.30
2022-09-10T13:41:26.205Z,24.30
2022-09-10T13:45:27.142Z,24.30
2022-09-10T13:49:19.357Z,24.30
2022-09-10T13:53:01.130Z,24.30
2022-09-10T13:56:43.789Z,24.30
2022-09-10T14:00:57.195Z,24.30
2022-09-10T14:04:43.119Z,24.30
2022-09-10T14:08:31.839Z,24.30
2022-09-10T14:12:52.506Z,24.30
2022-09-10T14:16:35.807Z,24.20
2022-09-10T14:20:58.707Z,24.10
2022-09-10T14:24:40.394Z,24.20
2022-09-10T14:28:24.608Z,24.30
2022-09-10T14:32:46.329Z,24.50
2022-09-10T14:36:28.068Z,24.70
2022-09-10T14:41:08.839Z,24.90
2022-09-10T14:44:50.751Z,25.10
2022-09-10T14:48:38.500Z,25.20
2022-09-10T14:52:42.284Z,25.30
2022-09-10T14:56:38.409Z,25.30
2022-09-10T15:00:23.048Z,25.30
2022-09-10T15:04:05.003Z,25.20
2022-09-10T15:07:47.628Z,25.10
2022-09-10T15:11:31.677Z,25.00
2022-09-10T15:15:17.666Z,24.80
2022-09-10T15:19:00.515Z,24.60
2022-09-10T15:22:42.274Z,24.30
2022-09-10T15:26:25.039Z,24.20
2022-09-10T15:30:07.426Z,24.00
2022-09-10T15:33:49.435Z,23.90
2022-09-10T15:37:31.151Z,23.80
2022-09-10T15:41:34.507Z,23.80
2022-09-10T15:45:16.295Z,23.80
2022-09-10T15:48:59.572Z,23.80
2022-09-10T15:52:41.441Z,24.00
2022-09-10T15:56:26.647Z,24.20
2022-09-10T16:00:48.026Z,24.40
2022-09-10T16:04:35.091Z,24.50
2022-09-10T16:08:17.624Z,24.60
2022-09-10T16:12:01.661Z,24.60
2022-09-10T16:15:43.418Z,24.50
2022-09-10T16:19:26.533Z,24.50
2022-09-10T16:23:08.251Z,24.30
2022-09-10T16:26:51.191Z,24.10
2022-09-10T16:30:33.145Z,24.00
2022-09-10T16:34:17.500Z,23.80
2022-09-10T16:38:00.551Z,23.70
2022-09-10T16:41:48.951Z,23.50
2022-09-10T16:45:30.789Z,23.40
2022-09-10T16:49:55.385Z,23.30
2022-09-10T16:53:38.738Z,23.20
2022-09-10T16:57:21.253Z,23.20
2022-09-10T17:01:04.089Z,23.20
2022-09-10T17:04:45.827Z,23.10
2022-09-10T17:08:29.233Z,23.10
2022-09-10T17:12:33.935Z,23.10
2022-09-10T17:16:22.925Z,23.00
2022-09-10T17:20:10.148Z,23.00
2022-09-10T17:23:52.299Z,23.00
2022-09-10T17:27:34.957Z,23.20
2022-09-10T17:31:37.766Z,23.20
2022-09-10T17:35:19.486Z,23.20
2022-09-10T17:39:01.275Z,23.10
2022-09-10T17:42:43.063Z,23.10
2022-09-10T17:46:25.313Z,22.90
2022-09-10T17:50:27.573Z,22.80
2022-09-10T17:54:09.407Z,22.60
2022-09-10T17:57:51.146Z,22.50
2022-09-10T18:02:11.575Z,22.30
2022-09-10T18:05:53.510Z,22.10
2022-09-10T18:10:31.545Z,22.00
2022-09-10T18:14:18.242Z,21.80
2022-09-10T18:18:01.402Z,21.70
2022-09-10T18:22:39.935Z,21.50
2022-09-10T18:26:23.219Z,21.40
2022-09-10T18:30:26.163Z,21.20
2022-09-10T18:34:09.365Z,21.10
2022-09-10T18:37:51.842Z,21.00
2022-09-10T18:41:39.784Z,20.80
2022-09-10T18:45:21.518Z,20.70
2022-09-10T18:49:26.592Z,20.60
2022-09-10T18:53:08.767Z,20.50
2022-09-10T18:56:50.978Z,20.40
2022-09-10T19:01:11.212Z,20.20
2022-09-10T19:05:11.840Z,20.10
2022-09-10T19:08:55.395Z,20.00
2022-09-10T19:13:34.490Z,19.80
2022-09-10T19:17:16.263Z,19.70
2022-09-10T19:21:07.148Z,19.60
2022-09-10T19:28:50.950Z,19.40
2022-09-10T19:33:13.052Z,19.30
2022-09-10T19:36:54.852Z,19.20
2022-09-10T19:41:24.377Z,19.20
2022-09-10T19:45:10.088Z,19.00
2022-09-10T19:48:53.188Z,19.00
2022-09-10T19:53:31.070Z,18.90
2022-09-10T19:57:12.821Z,18.80
2022-09-10T20:01:15.165Z,18.80
2022-09-10T20:04:56.878Z,18.70
2022-09-10T20:08:39.071Z,18.60
2022-09-10T20:13:17.346Z,18.50
2022-09-10T20:16:59.313Z,18.40
2022-09-10T20:21:12.326Z,18.40
2022-09-10T20:24:56.380Z,18.30
2022-09-10T20:28:38.399Z,18.20
2022-09-10T20:32:22.930Z,18.10
2022-09-10T20:36:06.103Z,18.10
2022-09-10T20:39:50.355Z,18.00
2022-09-10T20:43:32.607Z,18.00
2022-09-10T20:47:14.490Z,18.00
2022-09-10T20:51:52.534Z,17.90
2022-09-10T20:55:34.664Z,17.80
2022-09-10T20:59:17.768Z,17.80
2022-09-10T21:02:59.506Z,17.70
2022-09-10T21:06:41.308Z,17.70
2022-09-10T21:11:02.682Z,17.70
2022-09-10T21:14:44.402Z,17.60
2022-09-10T21:18:26.393Z,17.60
2022-09-10T21:23:04.434Z,17.60
2022-09-10T21:26:46.291Z,17.50
2022-09-10T21:30:46.886Z,17.50
2022-09-10T21:34:28.784Z,17.40
2022-09-10T21:38:10.486Z,17.40
2022-09-10T21:42:48.655Z,17.30
2022-09-10T21:46:30.913Z,17.30
2022-09-10T21:50:14.973Z,17.30
2022-09-10T21:53:56.933Z,17.20
2022-09-10T21:57:39.376Z,17.20
2022-09-10T22:02:00.587Z,17.10
2022-09-10T22:05:42.859Z,17.10
2022-09-10T22:09:26.346Z,17.00
2022-09-10T22:13:08.706Z,17.00
2022-09-10T22:16:50.720Z,17.00
2022-09-10T22:21:28.912Z,16.90
2022-09-10T22:25:10.766Z,16.80
2022-09-10T22:28:54.242Z,16.80
2022-09-10T22:32:57.204Z,16.70
2022-09-10T22:36:39.587Z,16.70
2022-09-10T22:40:40.206Z,16.60
2022-09-10T22:44:23.169Z,16.60
2022-09-10T22:48:05.133Z,16.50
2022-09-10T22:52:06.730Z,16.50
2022-09-10T22:55:48.989Z,16.50
2022-09-10T22:59:37.381Z,16.40
2022-09-10T23:03:20.604Z,16.40
2022-09-10T23:07:02.764Z,16.30
2022-09-10T23:11:16.470Z,16.20
2022-09-10T23:14:58.238Z,16.10
2022-09-10T23:18:40.556Z,16.10
2022-09-10T23:22:23.586Z,16.00
2022-09-10T23:26:09.374Z,16.00
2022-09-10T23:29:55.958Z,15.90
2022-09-10T23:33:37.664Z,15.90
2022-09-10T23:37:19.904Z,15.80
2022-09-10T23:41:46.509Z,15.80
2022-09-10T23:45:28.209Z,15.80
2022-09-10T23:50:06.457Z,15.80
2022-09-10T23:53:48.486Z,15.80
2022-09-10T23:57:30.273Z,15.80
